FFL1201 KBFI-KSFO
Flight info
| Callsign | FFL1201 |
|---|---|
| Flight time | 1h 45m |
| Altitude | 45000 |
| Route | DCT JJAMM DCT ELMAA DCT ERAVE Q1 ETCHY DCT MLBEC BDEGA4 |
| Aircraft | LJ35/M-SBDFGHIRWXY/S |
Departure
| Time | 2026-04-25 23:23 |
|---|---|
| Airport | King County International Airport - Boeing Field (KBFI) |
Arrival
| Time | 2026-04-26 01:08 |
|---|---|
| Airport | San Francisco International Airport (KSFO) |
| Time | Latitude | Longitude | Altitude | Speed | Heading |
|---|---|---|---|---|---|
| 2026-04-25 23:11 | 47.53809 | -122.30551 | 22 ft | 0 kts | 143° |
| 2026-04-25 23:17 | 47.53801 | -122.30542 | 22 ft | 3 kts | 142° |
| 2026-04-25 23:17 | 47.53771 | -122.30563 | 23 ft | 9 kts | 232° |
| 2026-04-25 23:17 | 47.53705 | -122.30564 | 22 ft | 14 kts | 146° |
| 2026-04-25 23:17 | 47.53605 | -122.30459 | 22 ft | 21 kts | 143° |
| 2026-04-25 23:18 | 47.53465 | -122.30338 | 22 ft | 26 kts | 151° |
| 2026-04-25 23:18 | 47.53292 | -122.30194 | 22 ft | 30 kts | 150° |
| 2026-04-25 23:18 | 47.53116 | -122.30045 | 24 ft | 26 kts | 150° |
| 2026-04-25 23:18 | 47.52976 | -122.29929 | 22 ft | 19 kts | 149° |
| 2026-04-25 23:19 | 47.52877 | -122.29844 | 22 ft | 18 kts | 150° |
| 2026-04-25 23:19 | 47.52761 | -122.29858 | 20 ft | 15 kts | 189° |
| 2026-04-25 23:19 | 47.52674 | -122.29810 | 20 ft | 13 kts | 148° |
| 2026-04-25 23:19 | 47.52582 | -122.29736 | 20 ft | 18 kts | 148° |
| 2026-04-25 23:20 | 47.52465 | -122.29637 | 20 ft | 16 kts | 150° |
| 2026-04-25 23:20 | 47.52384 | -122.29569 | 21 ft | 9 kts | 149° |
| 2026-04-25 23:20 | 47.52373 | -122.29559 | 21 ft | 0 kts | 149° |
| 2026-04-25 23:20 | 47.52360 | -122.29548 | 22 ft | 5 kts | 149° |
| 2026-04-25 23:21 | 47.52340 | -122.29531 | 21 ft | 2 kts | 150° |
| 2026-04-25 23:21 | 47.52329 | -122.29522 | 21 ft | 3 kts | 155° |
| 2026-04-25 23:21 | 47.52305 | -122.29565 | 20 ft | 10 kts | 240° |
| 2026-04-25 23:21 | 47.52290 | -122.29646 | 20 ft | 8 kts | 328° |
| 2026-04-25 23:22 | 47.52297 | -122.29651 | 20 ft | 0 kts | 332° |
| 2026-04-25 23:22 | 47.52298 | -122.29652 | 20 ft | 2 kts | 332° |
| 2026-04-25 23:22 | 47.52484 | -122.29809 | 18 ft | 78 kts | 330° |
| 2026-04-25 23:23 | 47.54418 | -122.31410 | 1741 ft | 194 kts | 331° |
| 2026-04-25 23:23 | 47.55625 | -122.32460 | 2404 ft | 207 kts | 330° |
| 2026-04-25 23:23 | 47.56871 | -122.33682 | 2447 ft | 223 kts | 327° |
| 2026-04-25 23:23 | 47.58181 | -122.35026 | 2459 ft | 235 kts | 326° |
| 2026-04-25 23:24 | 47.59439 | -122.36641 | 2474 ft | 245 kts | 312° |
| 2026-04-25 23:24 | 47.60504 | -122.38645 | 2423 ft | 252 kts | 311° |
| 2026-04-25 23:24 | 47.61552 | -122.40578 | 3111 ft | 226 kts | 311° |
| 2026-04-25 23:24 | 47.62473 | -122.42252 | 4031 ft | 198 kts | 313° |
| 2026-04-25 23:25 | 47.63321 | -122.43871 | 4477 ft | 200 kts | 309° |
| 2026-04-25 23:25 | 47.63922 | -122.45731 | 4889 ft | 209 kts | 282° |
| 2026-04-25 23:25 | 47.63605 | -122.47881 | 5338 ft | 225 kts | 240° |
| 2026-04-25 23:25 | 47.62400 | -122.49405 | 5888 ft | 235 kts | 205° |
| 2026-04-25 23:26 | 47.60889 | -122.50323 | 6647 ft | 233 kts | 199° |
| 2026-04-25 23:26 | 47.59354 | -122.51116 | 7366 ft | 232 kts | 198° |
| 2026-04-25 23:26 | 47.57825 | -122.51943 | 8057 ft | 243 kts | 200° |
| 2026-04-25 23:26 | 47.56170 | -122.52849 | 8681 ft | 268 kts | 199° |
| 2026-04-25 23:27 | 47.54295 | -122.53895 | 9544 ft | 300 kts | 200° |
| 2026-04-25 23:27 | 47.52286 | -122.55020 | 10850 ft | 323 kts | 200° |
| 2026-04-25 23:27 | 47.50189 | -122.56231 | 12486 ft | 323 kts | 202° |
| 2026-04-25 23:27 | 47.48099 | -122.57467 | 14225 ft | 324 kts | 202° |
| 2026-04-25 23:28 | 47.46001 | -122.58686 | 15818 ft | 324 kts | 202° |
| 2026-04-25 23:28 | 47.43896 | -122.59901 | 17449 ft | 325 kts | 202° |
| 2026-04-25 23:28 | 47.41756 | -122.61124 | 18663 ft | 339 kts | 202° |
| 2026-04-25 23:28 | 47.39505 | -122.62413 | 19640 ft | 354 kts | 202° |
| 2026-04-25 23:29 | 47.37249 | -122.63991 | 20710 ft | 364 kts | 213° |
| 2026-04-25 23:29 | 47.35255 | -122.66328 | 21862 ft | 369 kts | 227° |
| 2026-04-25 23:29 | 47.33673 | -122.69312 | 23088 ft | 372 kts | 241° |
| 2026-04-25 23:29 | 47.32624 | -122.72735 | 24215 ft | 372 kts | 253° |
| 2026-04-25 23:30 | 47.31737 | -122.76331 | 25352 ft | 375 kts | 251° |
| 2026-04-25 23:30 | 47.30799 | -122.79918 | 26535 ft | 377 kts | 251° |
| 2026-04-25 23:30 | 47.29854 | -122.83523 | 27731 ft | 377 kts | 251° |
| 2026-04-25 23:30 | 47.28914 | -122.87124 | 28999 ft | 377 kts | 251° |
| 2026-04-25 23:31 | 47.27978 | -122.90722 | 30229 ft | 375 kts | 252° |
| 2026-04-25 23:31 | 47.27047 | -122.94304 | 31311 ft | 374 kts | 252° |
| 2026-04-25 23:31 | 47.26118 | -122.97874 | 32382 ft | 373 kts | 252° |
| 2026-04-25 23:31 | 47.25193 | -123.01427 | 33439 ft | 371 kts | 253° |
| 2026-04-25 23:32 | 47.24269 | -123.04967 | 34378 ft | 370 kts | 253° |
| 2026-04-25 23:32 | 47.23349 | -123.08489 | 35232 ft | 368 kts | 252° |
| 2026-04-25 23:32 | 47.22429 | -123.12015 | 35919 ft | 372 kts | 252° |
| 2026-04-25 23:32 | 47.21498 | -123.15587 | 36519 ft | 377 kts | 252° |
| 2026-04-25 23:33 | 47.20548 | -123.19210 | 37108 ft | 382 kts | 252° |
| 2026-04-25 23:33 | 47.19581 | -123.22888 | 37633 ft | 389 kts | 251° |
| 2026-04-25 23:33 | 47.18598 | -123.26621 | 38179 ft | 394 kts | 251° |
| 2026-04-25 23:33 | 47.17474 | -123.30322 | 38687 ft | 400 kts | 243° |
| 2026-04-25 23:34 | 47.15865 | -123.33693 | 39115 ft | 407 kts | 230° |
| 2026-04-25 23:34 | 47.13789 | -123.36551 | 39555 ft | 412 kts | 218° |
| 2026-04-25 23:34 | 47.11334 | -123.38743 | 40010 ft | 416 kts | 206° |
| 2026-04-25 23:34 | 47.08600 | -123.40156 | 40483 ft | 418 kts | 193° |
| 2026-04-25 23:35 | 47.05720 | -123.40658 | 40933 ft | 420 kts | 179° |
| 2026-04-25 23:35 | 47.02802 | -123.40406 | 41414 ft | 420 kts | 177° |
| 2026-04-25 23:35 | 46.99878 | -123.40259 | 41895 ft | 420 kts | 179° |
| 2026-04-25 23:35 | 46.96954 | -123.40195 | 42370 ft | 421 kts | 180° |
| 2026-04-25 23:36 | 46.94015 | -123.40151 | 42717 ft | 425 kts | 180° |
| 2026-04-25 23:36 | 46.92054 | -123.40118 | 42944 ft | 427 kts | 180° |
| 2026-04-25 23:36 | 46.88065 | -123.40032 | 43409 ft | 430 kts | 179° |
| 2026-04-25 23:36 | 46.85106 | -123.39944 | 43858 ft | 430 kts | 179° |
| 2026-04-25 23:37 | 46.82128 | -123.39837 | 44417 ft | 427 kts | 179° |
| 2026-04-25 23:37 | 46.79164 | -123.39749 | 44894 ft | 426 kts | 180° |
| 2026-04-25 23:37 | 46.76173 | -123.39670 | 44938 ft | 434 kts | 180° |
| 2026-04-25 23:38 | 46.70010 | -123.39505 | 44993 ft | 451 kts | 179° |
| 2026-04-25 23:38 | 46.63634 | -123.39314 | 44999 ft | 465 kts | 179° |
| 2026-04-25 23:39 | 46.57088 | -123.39100 | 44995 ft | 475 kts | 179° |
| 2026-04-25 23:39 | 46.50435 | -123.38894 | 44993 ft | 480 kts | 179° |
| 2026-04-25 23:40 | 46.43743 | -123.38685 | 44993 ft | 480 kts | 179° |
| 2026-04-25 23:40 | 46.37066 | -123.38480 | 44988 ft | 479 kts | 179° |
| 2026-04-25 23:41 | 46.30457 | -123.38272 | 44983 ft | 473 kts | 179° |
| 2026-04-25 23:41 | 46.23895 | -123.38076 | 44982 ft | 471 kts | 179° |
| 2026-04-25 23:42 | 46.17335 | -123.37870 | 44979 ft | 472 kts | 180° |
| 2026-04-25 23:42 | 46.10773 | -123.37668 | 44975 ft | 473 kts | 179° |
| 2026-04-25 23:43 | 46.04186 | -123.37472 | 44984 ft | 473 kts | 180° |
| 2026-04-25 23:43 | 45.97605 | -123.37277 | 44973 ft | 474 kts | 179° |
| 2026-04-25 23:44 | 45.91061 | -123.37081 | 44968 ft | 474 kts | 179° |
| 2026-04-25 23:44 | 45.84467 | -123.36861 | 44961 ft | 474 kts | 179° |
| 2026-04-25 23:45 | 45.77876 | -123.36664 | 44964 ft | 474 kts | 179° |
| 2026-04-25 23:45 | 45.71284 | -123.36465 | 44965 ft | 473 kts | 180° |
| 2026-04-25 23:46 | 45.64708 | -123.36272 | 44963 ft | 473 kts | 180° |
| 2026-04-25 23:46 | 45.59246 | -123.36115 | 44961 ft | 473 kts | 179° |
| 2026-04-25 23:47 | 45.52672 | -123.35918 | 44962 ft | 472 kts | 179° |
| 2026-04-25 23:47 | 45.46106 | -123.35702 | 44958 ft | 472 kts | 180° |
| 2026-04-25 23:48 | 45.39542 | -123.35505 | 44962 ft | 472 kts | 180° |
| 2026-04-25 23:48 | 45.32981 | -123.35315 | 44958 ft | 472 kts | 180° |
| 2026-04-25 23:49 | 45.26416 | -123.35136 | 44955 ft | 471 kts | 180° |
| 2026-04-25 23:49 | 45.19862 | -123.34938 | 44957 ft | 471 kts | 180° |
| 2026-04-25 23:50 | 45.13320 | -123.34738 | 44950 ft | 470 kts | 180° |
| 2026-04-25 23:50 | 45.06773 | -123.34524 | 44955 ft | 471 kts | 180° |
| 2026-04-25 23:51 | 45.00224 | -123.34344 | 44957 ft | 471 kts | 180° |
| 2026-04-25 23:51 | 44.93671 | -123.34160 | 44954 ft | 471 kts | 180° |
| 2026-04-25 23:52 | 44.87117 | -123.33995 | 44959 ft | 471 kts | 180° |
| 2026-04-25 23:52 | 44.80568 | -123.33796 | 44959 ft | 471 kts | 180° |
| 2026-04-25 23:53 | 44.74022 | -123.33576 | 44958 ft | 470 kts | 180° |
| 2026-04-25 23:53 | 44.67481 | -123.33358 | 44957 ft | 470 kts | 180° |
| 2026-04-25 23:54 | 44.60946 | -123.33187 | 44953 ft | 470 kts | 181° |
| 2026-04-25 23:54 | 44.54461 | -123.33027 | 44953 ft | 469 kts | 181° |
| 2026-04-25 23:55 | 44.47934 | -123.32843 | 44951 ft | 469 kts | 180° |
| 2026-04-25 23:55 | 44.41412 | -123.32578 | 44948 ft | 469 kts | 180° |
| 2026-04-25 23:56 | 44.34904 | -123.32296 | 44952 ft | 469 kts | 180° |
| 2026-04-25 23:56 | 44.28385 | -123.32013 | 44954 ft | 468 kts | 180° |
| 2026-04-25 23:57 | 44.21873 | -123.31748 | 44952 ft | 468 kts | 180° |
| 2026-04-25 23:57 | 44.15357 | -123.31504 | 44950 ft | 468 kts | 181° |
| 2026-04-25 23:58 | 44.08856 | -123.31261 | 44948 ft | 467 kts | 181° |
| 2026-04-25 23:58 | 44.02359 | -123.30998 | 44951 ft | 467 kts | 180° |
| 2026-04-25 23:59 | 43.95860 | -123.30727 | 44957 ft | 467 kts | 180° |
| 2026-04-25 23:59 | 43.89367 | -123.30466 | 44944 ft | 467 kts | 181° |
| 2026-04-26 00:00 | 43.82880 | -123.30210 | 44948 ft | 466 kts | 181° |
| 2026-04-26 00:00 | 43.76391 | -123.29955 | 44949 ft | 466 kts | 181° |
| 2026-04-26 00:01 | 43.69903 | -123.29701 | 44942 ft | 467 kts | 180° |
| 2026-04-26 00:01 | 43.63411 | -123.29445 | 44944 ft | 467 kts | 180° |
| 2026-04-26 00:02 | 43.56922 | -123.29191 | 44934 ft | 467 kts | 180° |
| 2026-04-26 00:02 | 43.50428 | -123.28937 | 44924 ft | 466 kts | 181° |
| 2026-04-26 00:03 | 43.43943 | -123.28685 | 44914 ft | 466 kts | 181° |
| 2026-04-26 00:03 | 43.37459 | -123.28433 | 44913 ft | 466 kts | 181° |
| 2026-04-26 00:04 | 43.30971 | -123.28181 | 44904 ft | 466 kts | 181° |
| 2026-04-26 00:04 | 43.24489 | -123.27930 | 44907 ft | 466 kts | 181° |
| 2026-04-26 00:05 | 43.18003 | -123.27680 | 44910 ft | 466 kts | 181° |
| 2026-04-26 00:05 | 43.11522 | -123.27431 | 44915 ft | 466 kts | 181° |
| 2026-04-26 00:06 | 43.05082 | -123.27183 | 44917 ft | 466 kts | 181° |
| 2026-04-26 00:06 | 42.98597 | -123.26935 | 44919 ft | 466 kts | 181° |
| 2026-04-26 00:07 | 42.92114 | -123.26689 | 44917 ft | 466 kts | 181° |
| 2026-04-26 00:07 | 42.85631 | -123.26441 | 44918 ft | 466 kts | 181° |
| 2026-04-26 00:08 | 42.79154 | -123.26194 | 44908 ft | 466 kts | 181° |
| 2026-04-26 00:08 | 42.72674 | -123.25947 | 44912 ft | 466 kts | 181° |
| 2026-04-26 00:09 | 42.66194 | -123.25700 | 44904 ft | 466 kts | 181° |
| 2026-04-26 00:09 | 42.59714 | -123.25456 | 44897 ft | 466 kts | 181° |
| 2026-04-26 00:10 | 42.53239 | -123.25211 | 44902 ft | 466 kts | 181° |
| 2026-04-26 00:10 | 42.46757 | -123.24966 | 44882 ft | 465 kts | 181° |
| 2026-04-26 00:11 | 42.40288 | -123.24726 | 44880 ft | 465 kts | 181° |
| 2026-04-26 00:11 | 42.33823 | -123.24488 | 44885 ft | 465 kts | 181° |
| 2026-04-26 00:12 | 42.27358 | -123.24250 | 44878 ft | 465 kts | 181° |
| 2026-04-26 00:12 | 42.20896 | -123.24013 | 44887 ft | 464 kts | 181° |
| 2026-04-26 00:13 | 42.14480 | -123.23778 | 44885 ft | 464 kts | 181° |
| 2026-04-26 00:13 | 42.08020 | -123.23540 | 44876 ft | 464 kts | 181° |
| 2026-04-26 00:14 | 42.01565 | -123.23304 | 44875 ft | 464 kts | 181° |
| 2026-04-26 00:14 | 41.95109 | -123.23068 | 44871 ft | 464 kts | 181° |
| 2026-04-26 00:15 | 41.88661 | -123.22827 | 44879 ft | 464 kts | 181° |
| 2026-04-26 00:15 | 41.82207 | -123.22598 | 44882 ft | 464 kts | 182° |
| 2026-04-26 00:16 | 41.75753 | -123.22367 | 44882 ft | 464 kts | 182° |
| 2026-04-26 00:16 | 41.69301 | -123.22131 | 44885 ft | 464 kts | 182° |
| 2026-04-26 00:17 | 41.62844 | -123.21898 | 44895 ft | 464 kts | 182° |
| 2026-04-26 00:17 | 41.56388 | -123.21673 | 44890 ft | 464 kts | 182° |
| 2026-04-26 00:18 | 41.49934 | -123.21450 | 44890 ft | 464 kts | 182° |
| 2026-04-26 00:18 | 41.43482 | -123.21226 | 44891 ft | 464 kts | 182° |
| 2026-04-26 00:19 | 41.37033 | -123.20998 | 44897 ft | 463 kts | 182° |
| 2026-04-26 00:19 | 41.30585 | -123.20788 | 44906 ft | 464 kts | 182° |
| 2026-04-26 00:20 | 41.24146 | -123.20629 | 44913 ft | 463 kts | 182° |
| 2026-04-26 00:20 | 41.17709 | -123.20477 | 44913 ft | 462 kts | 182° |
| 2026-04-26 00:21 | 41.11280 | -123.20319 | 44899 ft | 461 kts | 182° |
| 2026-04-26 00:21 | 41.04870 | -123.20145 | 44890 ft | 460 kts | 182° |
| 2026-04-26 00:22 | 40.98470 | -123.19990 | 44901 ft | 460 kts | 182° |
| 2026-04-26 00:22 | 40.92065 | -123.19830 | 44902 ft | 460 kts | 182° |
| 2026-04-26 00:23 | 40.85664 | -123.19678 | 44872 ft | 459 kts | 182° |
| 2026-04-26 00:23 | 40.79342 | -123.19518 | 44886 ft | 457 kts | 182° |
| 2026-04-26 00:24 | 40.72946 | -123.19355 | 44887 ft | 458 kts | 182° |
| 2026-04-26 00:24 | 40.66621 | -123.19197 | 44884 ft | 457 kts | 182° |
| 2026-04-26 00:25 | 40.60264 | -123.19036 | 44897 ft | 457 kts | 182° |
| 2026-04-26 00:25 | 40.53908 | -123.18880 | 44894 ft | 456 kts | 182° |
| 2026-04-26 00:26 | 40.47557 | -123.18723 | 44879 ft | 456 kts | 182° |
| 2026-04-26 00:26 | 40.41211 | -123.18568 | 44892 ft | 456 kts | 182° |
| 2026-04-26 00:27 | 40.34870 | -123.18411 | 44900 ft | 456 kts | 182° |
| 2026-04-26 00:27 | 40.28524 | -123.18254 | 44901 ft | 456 kts | 182° |
| 2026-04-26 00:28 | 40.22185 | -123.18098 | 44894 ft | 456 kts | 182° |
| 2026-04-26 00:28 | 40.15852 | -123.17942 | 44910 ft | 456 kts | 182° |
| 2026-04-26 00:29 | 40.09508 | -123.17784 | 44893 ft | 456 kts | 182° |
| 2026-04-26 00:29 | 40.03168 | -123.17629 | 44912 ft | 456 kts | 182° |
| 2026-04-26 00:30 | 39.96822 | -123.17475 | 44910 ft | 456 kts | 182° |
| 2026-04-26 00:30 | 39.90479 | -123.17254 | 44909 ft | 456 kts | 181° |
| 2026-04-26 00:31 | 39.84129 | -123.16937 | 44913 ft | 457 kts | 181° |
| 2026-04-26 00:31 | 39.77818 | -123.16624 | 44914 ft | 457 kts | 181° |
| 2026-04-26 00:32 | 39.71467 | -123.16322 | 44920 ft | 457 kts | 181° |
| 2026-04-26 00:32 | 39.61937 | -123.15881 | 44925 ft | 457 kts | 181° |
| 2026-04-26 00:33 | 39.55587 | -123.15592 | 44905 ft | 456 kts | 181° |
| 2026-04-26 00:33 | 39.49298 | -123.15278 | 44432 ft | 452 kts | 180° |
| 2026-04-26 00:34 | 39.43085 | -123.14968 | 43892 ft | 449 kts | 181° |
| 2026-04-26 00:34 | 39.39938 | -123.14836 | 43268 ft | 454 kts | 181° |
| 2026-04-26 00:34 | 39.36786 | -123.14698 | 42769 ft | 453 kts | 181° |
| 2026-04-26 00:35 | 39.34707 | -123.14607 | 42450 ft | 450 kts | 181° |
| 2026-04-26 00:35 | 39.31588 | -123.14472 | 41983 ft | 446 kts | 181° |
| 2026-04-26 00:35 | 39.28498 | -123.14346 | 41370 ft | 445 kts | 181° |
| 2026-04-26 00:35 | 39.25404 | -123.14213 | 40747 ft | 445 kts | 181° |
| 2026-04-26 00:36 | 39.22316 | -123.14073 | 40165 ft | 444 kts | 181° |
| 2026-04-26 00:36 | 39.19239 | -123.13932 | 39626 ft | 442 kts | 180° |
| 2026-04-26 00:36 | 39.16184 | -123.13792 | 39104 ft | 440 kts | 180° |
| 2026-04-26 00:36 | 39.13134 | -123.13609 | 38604 ft | 438 kts | 177° |
| 2026-04-26 00:37 | 39.10122 | -123.12972 | 37994 ft | 440 kts | 169° |
| 2026-04-26 00:37 | 39.07204 | -123.11766 | 37392 ft | 441 kts | 160° |
| 2026-04-26 00:37 | 39.04445 | -123.10021 | 36818 ft | 443 kts | 152° |
| 2026-04-26 00:37 | 39.01822 | -123.07941 | 36140 ft | 445 kts | 149° |
| 2026-04-26 00:38 | 38.99225 | -123.05747 | 35342 ft | 448 kts | 148° |
| 2026-04-26 00:38 | 38.96631 | -123.03530 | 34613 ft | 448 kts | 148° |
| 2026-04-26 00:38 | 38.94030 | -123.01328 | 33905 ft | 447 kts | 148° |
| 2026-04-26 00:38 | 38.91424 | -122.99159 | 33123 ft | 446 kts | 149° |
| 2026-04-26 00:39 | 38.88718 | -122.97210 | 32349 ft | 445 kts | 155° |
| 2026-04-26 00:39 | 38.85897 | -122.95657 | 31599 ft | 438 kts | 161° |
| 2026-04-26 00:39 | 38.83012 | -122.94538 | 30895 ft | 430 kts | 168° |
| 2026-04-26 00:39 | 38.80118 | -122.93698 | 30209 ft | 424 kts | 168° |
| 2026-04-26 00:40 | 38.77263 | -122.92851 | 29486 ft | 419 kts | 169° |
| 2026-04-26 00:40 | 38.74441 | -122.92016 | 28732 ft | 415 kts | 168° |
| 2026-04-26 00:40 | 38.71639 | -122.91185 | 27999 ft | 413 kts | 168° |
| 2026-04-26 00:40 | 38.68842 | -122.90367 | 27430 ft | 410 kts | 167° |
| 2026-04-26 00:41 | 38.66075 | -122.89561 | 27122 ft | 407 kts | 167° |
| 2026-04-26 00:41 | 38.63312 | -122.88752 | 26803 ft | 408 kts | 167° |
| 2026-04-26 00:41 | 38.60536 | -122.87947 | 26486 ft | 410 kts | 167° |
| 2026-04-26 00:41 | 38.57733 | -122.87121 | 25979 ft | 417 kts | 166° |
| 2026-04-26 00:42 | 38.54882 | -122.86276 | 25456 ft | 424 kts | 166° |
| 2026-04-26 00:42 | 38.51996 | -122.85414 | 24950 ft | 426 kts | 165° |
| 2026-04-26 00:42 | 38.49118 | -122.84553 | 24466 ft | 422 kts | 164° |
| 2026-04-26 00:42 | 38.46327 | -122.83719 | 23995 ft | 413 kts | 165° |
| 2026-04-26 00:43 | 38.43515 | -122.82898 | 23517 ft | 405 kts | 165° |
| 2026-04-26 00:43 | 38.40785 | -122.82106 | 22957 ft | 401 kts | 165° |
| 2026-04-26 00:43 | 38.38071 | -122.81315 | 22402 ft | 399 kts | 165° |
| 2026-04-26 00:43 | 38.35365 | -122.80523 | 21868 ft | 400 kts | 165° |
| 2026-04-26 00:44 | 38.32689 | -122.79739 | 21358 ft | 400 kts | 165° |
| 2026-04-26 00:44 | 38.29982 | -122.78947 | 20859 ft | 399 kts | 165° |
| 2026-04-26 00:44 | 38.27284 | -122.78155 | 20372 ft | 396 kts | 165° |
| 2026-04-26 00:44 | 38.24619 | -122.77377 | 19896 ft | 391 kts | 166° |
| 2026-04-26 00:45 | 38.21984 | -122.76609 | 19435 ft | 386 kts | 165° |
| 2026-04-26 00:45 | 38.19389 | -122.75851 | 18979 ft | 381 kts | 166° |
| 2026-04-26 00:45 | 38.16823 | -122.75103 | 18531 ft | 377 kts | 166° |
| 2026-04-26 00:45 | 38.14277 | -122.74361 | 18077 ft | 374 kts | 166° |
| 2026-04-26 00:46 | 38.11752 | -122.73631 | 17581 ft | 371 kts | 165° |
| 2026-04-26 00:46 | 38.09248 | -122.72905 | 17087 ft | 368 kts | 166° |
| 2026-04-26 00:46 | 38.06760 | -122.72183 | 16609 ft | 366 kts | 166° |
| 2026-04-26 00:46 | 38.04287 | -122.71464 | 16152 ft | 364 kts | 166° |
| 2026-04-26 00:47 | 38.01826 | -122.70749 | 15745 ft | 361 kts | 166° |
| 2026-04-26 00:47 | 37.99401 | -122.70031 | 15429 ft | 356 kts | 165° |
| 2026-04-26 00:47 | 37.96997 | -122.69331 | 15107 ft | 353 kts | 166° |
| 2026-04-26 00:47 | 37.94606 | -122.68651 | 14772 ft | 352 kts | 166° |
| 2026-04-26 00:48 | 37.92220 | -122.67965 | 14450 ft | 351 kts | 165° |
| 2026-04-26 00:48 | 37.89913 | -122.66970 | 14137 ft | 350 kts | 155° |
| 2026-04-26 00:48 | 37.87820 | -122.65466 | 14025 ft | 343 kts | 144° |
| 2026-04-26 00:48 | 37.85962 | -122.63581 | 13701 ft | 343 kts | 137° |
| 2026-04-26 00:49 | 37.84202 | -122.61543 | 13353 ft | 340 kts | 136° |
| 2026-04-26 00:49 | 37.82462 | -122.59550 | 12994 ft | 335 kts | 137° |
| 2026-04-26 00:49 | 37.80717 | -122.57614 | 12629 ft | 332 kts | 138° |
| 2026-04-26 00:49 | 37.78984 | -122.55735 | 12205 ft | 324 kts | 139° |
| 2026-04-26 00:50 | 37.77279 | -122.53912 | 11787 ft | 317 kts | 139° |
| 2026-04-26 00:50 | 37.75609 | -122.52135 | 11378 ft | 310 kts | 139° |
| 2026-04-26 00:50 | 37.73982 | -122.50417 | 11205 ft | 298 kts | 139° |
| 2026-04-26 00:50 | 37.72425 | -122.48761 | 11068 ft | 289 kts | 139° |
| 2026-04-26 00:51 | 37.70892 | -122.47127 | 11021 ft | 288 kts | 139° |
| 2026-04-26 00:51 | 37.69348 | -122.45482 | 11014 ft | 292 kts | 138° |
| 2026-04-26 00:51 | 37.67783 | -122.43816 | 11006 ft | 297 kts | 139° |
| 2026-04-26 00:51 | 37.66217 | -122.42152 | 10997 ft | 299 kts | 139° |
| 2026-04-26 00:52 | 37.64600 | -122.40436 | 10997 ft | 299 kts | 139° |
| 2026-04-26 00:52 | 37.63046 | -122.38786 | 10998 ft | 293 kts | 139° |
| 2026-04-26 00:52 | 37.61495 | -122.37153 | 10995 ft | 288 kts | 141° |
| 2026-04-26 00:52 | 37.59806 | -122.35830 | 10988 ft | 285 kts | 154° |
| 2026-04-26 00:53 | 37.57964 | -122.34956 | 10994 ft | 282 kts | 160° |
| 2026-04-26 00:53 | 37.56169 | -122.34002 | 10998 ft | 279 kts | 155° |
| 2026-04-26 00:53 | 37.54420 | -122.32945 | 10912 ft | 280 kts | 154° |
| 2026-04-26 00:53 | 37.52651 | -122.31879 | 10760 ft | 283 kts | 155° |
| 2026-04-26 00:54 | 37.50863 | -122.30797 | 10533 ft | 285 kts | 154° |
| 2026-04-26 00:54 | 37.49081 | -122.29696 | 10300 ft | 285 kts | 154° |
| 2026-04-26 00:54 | 37.47312 | -122.28600 | 10065 ft | 282 kts | 154° |
| 2026-04-26 00:54 | 37.45576 | -122.27456 | 9834 ft | 281 kts | 149° |
| 2026-04-26 00:55 | 37.44053 | -122.25925 | 9569 ft | 281 kts | 136° |
| 2026-04-26 00:55 | 37.42855 | -122.23989 | 9280 ft | 280 kts | 122° |
| 2026-04-26 00:55 | 37.41975 | -122.21815 | 8991 ft | 279 kts | 115° |
| 2026-04-26 00:55 | 37.41200 | -122.19582 | 8713 ft | 278 kts | 114° |
| 2026-04-26 00:56 | 37.40460 | -122.17352 | 8447 ft | 273 kts | 112° |
| 2026-04-26 00:56 | 37.39753 | -122.15174 | 8168 ft | 266 kts | 113° |
| 2026-04-26 00:56 | 37.39072 | -122.13030 | 7915 ft | 262 kts | 112° |
| 2026-04-26 00:56 | 37.38419 | -122.10910 | 7633 ft | 258 kts | 112° |
| 2026-04-26 00:57 | 37.37766 | -122.08823 | 7360 ft | 255 kts | 113° |
| 2026-04-26 00:57 | 37.37120 | -122.06746 | 7085 ft | 255 kts | 113° |
| 2026-04-26 00:57 | 37.36503 | -122.04674 | 6815 ft | 252 kts | 113° |
| 2026-04-26 00:57 | 37.35902 | -122.02617 | 6553 ft | 250 kts | 113° |
| 2026-04-26 00:58 | 37.35319 | -122.00566 | 6297 ft | 248 kts | 113° |
| 2026-04-26 00:58 | 37.34913 | -121.98456 | 6021 ft | 249 kts | 97° |
| 2026-04-26 00:58 | 37.34943 | -121.96284 | 5748 ft | 250 kts | 82° |
| 2026-04-26 00:58 | 37.35414 | -121.94190 | 5474 ft | 250 kts | 66° |
| 2026-04-26 00:59 | 37.36340 | -121.92380 | 5184 ft | 245 kts | 43° |
| 2026-04-26 00:59 | 37.37792 | -121.91345 | 4883 ft | 239 kts | 18° |
| 2026-04-26 00:59 | 37.39387 | -121.91060 | 4575 ft | 235 kts | 349° |
| 2026-04-26 00:59 | 37.40880 | -121.91768 | 4293 ft | 229 kts | 327° |
| 2026-04-26 01:00 | 37.42195 | -121.92850 | 3999 ft | 223 kts | 310° |
| 2026-04-26 01:00 | 37.43147 | -121.94361 | 3723 ft | 219 kts | 301° |
| 2026-04-26 01:00 | 37.43998 | -121.95939 | 3447 ft | 217 kts | 298° |
| 2026-04-26 01:00 | 37.44810 | -121.97514 | 3256 ft | 211 kts | 298° |
| 2026-04-26 01:01 | 37.45581 | -121.99049 | 3178 ft | 204 kts | 298° |
| 2026-04-26 01:01 | 37.46318 | -122.00533 | 3126 ft | 196 kts | 299° |
| 2026-04-26 01:01 | 37.47014 | -122.01967 | 3095 ft | 188 kts | 297° |
| 2026-04-26 01:01 | 37.47641 | -122.03376 | 3086 ft | 181 kts | 294° |
| 2026-04-26 01:02 | 37.48218 | -122.04779 | 3087 ft | 183 kts | 292° |
| 2026-04-26 01:02 | 37.48790 | -122.06252 | 3094 ft | 191 kts | 292° |
| 2026-04-26 01:02 | 37.49388 | -122.07782 | 3101 ft | 198 kts | 293° |
| 2026-04-26 01:02 | 37.50021 | -122.09351 | 3111 ft | 203 kts | 293° |
| 2026-04-26 01:03 | 37.50683 | -122.10946 | 3113 ft | 208 kts | 295° |
| 2026-04-26 01:03 | 37.51379 | -122.12553 | 3110 ft | 211 kts | 295° |
| 2026-04-26 01:03 | 37.52089 | -122.14180 | 3101 ft | 213 kts | 295° |
| 2026-04-26 01:03 | 37.52793 | -122.15823 | 3091 ft | 214 kts | 294° |
| 2026-04-26 01:04 | 37.53485 | -122.17486 | 3107 ft | 215 kts | 294° |
| 2026-04-26 01:04 | 37.54173 | -122.19154 | 3051 ft | 215 kts | 294° |
| 2026-04-26 01:04 | 37.54868 | -122.20808 | 2738 ft | 208 kts | 295° |
| 2026-04-26 01:04 | 37.55534 | -122.22374 | 2460 ft | 197 kts | 294° |
| 2026-04-26 01:05 | 37.56158 | -122.23873 | 2197 ft | 189 kts | 294° |
| 2026-04-26 01:05 | 37.56755 | -122.25313 | 1949 ft | 182 kts | 295° |
| 2026-04-26 01:05 | 37.57333 | -122.26682 | 1691 ft | 171 kts | 295° |
| 2026-04-26 01:05 | 37.57874 | -122.27980 | 1415 ft | 164 kts | 294° |
| 2026-04-26 01:06 | 37.58392 | -122.29228 | 1140 ft | 159 kts | 296° |
| 2026-04-26 01:06 | 37.58914 | -122.30445 | 842 ft | 156 kts | 294° |
| 2026-04-26 01:06 | 37.59401 | -122.31551 | 649 ft | 126 kts | 295° |
| 2026-04-26 01:06 | 37.59801 | -122.32442 | 431 ft | 115 kts | 294° |
| 2026-04-26 01:07 | 37.60158 | -122.33339 | 322 ft | 115 kts | 293° |
| 2026-04-26 01:07 | 37.60518 | -122.34252 | 245 ft | 118 kts | 295° |
| 2026-04-26 01:07 | 37.60900 | -122.35170 | 170 ft | 119 kts | 294° |
| 2026-04-26 01:07 | 37.61278 | -122.36090 | 40 ft | 117 kts | 295° |
| 2026-04-26 01:08 | 37.61628 | -122.36925 | 16 ft | 94 kts | 297° |
| 2026-04-26 01:08 | 37.61882 | -122.37530 | 16 ft | 59 kts | 297° |
| 2026-04-26 01:08 | 37.61991 | -122.37786 | 16 ft | 17 kts | 304° |
| 2026-04-26 01:08 | 37.62063 | -122.37796 | 16 ft | 14 kts | 48° |
| 2026-04-26 01:09 | 37.62134 | -122.37696 | 16 ft | 18 kts | 46° |
| 2026-04-26 01:09 | 37.62224 | -122.37569 | 16 ft | 15 kts | 47° |
| 2026-04-26 01:09 | 37.62291 | -122.37582 | 16 ft | 16 kts | 298° |
| 2026-04-26 01:09 | 37.62352 | -122.37728 | 16 ft | 22 kts | 296° |
| 2026-04-26 01:10 | 37.62425 | -122.37900 | 16 ft | 19 kts | 298° |
| 2026-04-26 01:10 | 37.62494 | -122.38065 | 16 ft | 24 kts | 297° |
| 2026-04-26 01:10 | 37.62577 | -122.38260 | 16 ft | 20 kts | 298° |
| 2026-04-26 01:10 | 37.62625 | -122.38376 | 16 ft | 16 kts | 296° |
| 2026-04-26 01:11 | 37.62672 | -122.38489 | 16 ft | 10 kts | 298° |
| 2026-04-26 01:11 | 37.62717 | -122.38531 | 16 ft | 11 kts | 25° |
| 2026-04-26 01:11 | 37.62748 | -122.38462 | 16 ft | 7 kts | 113° |
| 2026-04-26 01:11 | 37.62745 | -122.38455 | 16 ft | 0 kts | 114° |